Time;durP1;ratioP1;P1;durP2;ratioP2;P2;SDS_P1;SDS_P2;PMS_P1;PMS_P2;Temp;Humidity;BMP_temperature;BMP_pressure;BME280_temperature;BME280_humidity;BME280_pressure;Samples;Min_cycle;Max_cycle;Signal;HPM_P1;HPM_P2
2023/08/15 14:43:24;;;;;;;2.30;1.80;;;;;;;35.33;25.71;99463.09;102747;1290;601153;-22
2023/08/15 14:45:52;;;;;;;4.40;1.90;;;;;;;35.40;25.39;99461.02;105041;1264;62714;-22
2023/08/15 14:48:19;;;;;;;3.60;1.50;;;;;;;35.46;25.53;99460.30;104845;1264;61186;-22
2023/08/15 14:50:47;;;;;;;3.10;1.50;;;;;;;35.40;25.29;99457.89;104842;1264;62149;-22
2023/08/15 14:53:15;;;;;;;2.40;1.40;;;;;;;35.42;25.44;99457.23;105067;1264;65427;-23
2023/08/15 14:55:43;;;;;;;2.10;1.70;;;;;;;35.39;25.82;99462.33;104843;1270;62537;-22
2023/08/15 14:58:11;;;;;;;4.00;1.80;;;;;;;35.34;25.85;99461.17;103151;1264;2851182;-22
2023/08/15 15:00:38;;;;;;;3.60;1.60;;;;;;;35.29;26.09;99462.79;105186;1263;61166;-22
2023/08/15 15:03:06;;;;;;;2.90;1.60;;;;;;;35.28;26.01;99466.47;105199;1264;62021;-22
2023/08/15 15:05:34;;;;;;;2.40;1.60;;;;;;;35.27;26.47;99468.16;105147;1269;65336;-22
2023/08/15 15:08:02;;;;;;;4.40;1.70;;;;;;;35.17;26.69;99467.40;105192;1264;62467;-22
2023/08/15 15:10:30;;;;;;;2.20;1.70;;;;;;;35.10;26.85;99468.23;105138;1267;61192;-22
2023/08/15 15:12:57;;;;;;;3.40;1.80;;;;;;;35.16;26.72;99466.21;105175;1264;61120;-22
2023/08/15 15:15:25;;;;;;;2.20;1.70;;;;;;;35.22;26.51;99467.58;105121;1269;64084;-22
2023/08/15 15:25:51;;;;;;;3.30;1.40;;;;;;;35.12;26.72;99469.69;102638;1289;600337;-22
2023/08/15 15:28:19;;;;;;;1.80;1.40;;;;;;;35.09;26.48;99465.49;104894;1264;61148;-22
2023/08/15 15:30:48;;;;;;;1.60;1.40;;;;;;;35.04;26.84;99464.70;104968;1263;61168;-23
2023/08/15 15:33:16;;;;;;;2.50;1.70;;;;;;;35.01;26.79;99466.77;104893;1272;63278;-22
2023/08/15 15:35:44;;;;;;;2.30;1.70;;;;;;;34.99;26.65;99468.67;104896;1264;65508;-22
2023/08/15 15:38:11;;;;;;;2.80;1.70;;;;;;;34.94;26.64;99469.05;104898;1270;63762;-22
2023/08/15 15:48:21;;;;;;;3.00;1.60;;;;;;;34.71;26.82;99460.16;102769;1290;600312;-22
2023/08/15 15:50:49;;;;;;;2.20;1.80;;;;;;;34.65;26.90;99459.59;105078;1264;61142;-22
2023/08/15 15:53:17;;;;;;;2.20;1.30;;;;;;;34.60;26.95;99460.41;105075;1269;61190;-22
2023/08/15 15:55:45;;;;;;;1.50;1.20;;;;;;;34.49;27.08;99461.30;104935;1269;62010;-23
2023/08/15 15:58:12;;;;;;;3.20;1.60;;;;;;;34.41;27.13;99463.05;105112;1269;64350;-22
2023/08/15 16:00:40;;;;;;;1.80;1.50;;;;;;;34.32;27.25;99468.62;104864;1267;63789;-22
2023/08/15 16:03:08;;;;;;;2.60;1.10;;;;;;;34.19;27.08;99467.40;103162;1263;2741949;-22
2023/08/15 16:05:36;;;;;;;1.90;1.20;;;;;;;34.10;26.95;99466.92;105037;1260;61064;-22
2023/08/15 16:08:04;;;;;;;2.40;1.30;;;;;;;34.03;27.10;99468.92;105282;1260;63361;-22
2023/08/15 16:10:31;;;;;;;2.30;1.20;;;;;;;33.94;27.28;99467.41;105252;1263;64148;-22
2023/08/15 16:12:59;;;;;;;2.50;1.30;;;;;;;33.82;27.66;99466.30;105154;1260;62572;-22
2023/08/15 16:23:08;;;;;;;2.40;1.20;;;;;;;33.48;27.97;99462.34;102643;1295;600023;-22
2023/08/15 16:25:35;;;;;;;2.70;1.20;;;;;;;33.38;28.13;99456.52;104848;1270;61264;-22
2023/08/15 16:28:04;;;;;;;1.80;1.20;;;;;;;33.29;28.31;99452.78;105060;1267;61139;-22
2023/08/15 16:30:31;;;;;;;2.50;1.20;;;;;;;33.19;28.77;99452.48;104905;1268;62074;-22
2023/08/15 16:32:59;;;;;;;1.90;1.30;;;;;;;33.10;28.58;99459.64;105091;1270;65590;-22
2023/08/15 16:35:27;;;;;;;1.50;1.20;;;;;;;32.97;29.01;99458.67;104814;1273;63837;-22
2023/08/15 16:37:54;;;;;;;1.20;1.10;;;;;;;32.83;29.42;99461.55;103066;1270;2831108;-22
2023/08/15 16:40:22;;;;;;;2.00;1.70;;;;;;;32.70;29.70;99461.87;105035;1270;61179;-22
2023/08/15 16:43:10;;;;;;;1.70;1.50;;;;;;;32.58;29.93;99462.63;105185;1266;63400;-22
2023/08/15 16:45:38;;;;;;;2.60;1.30;;;;;;;32.44;30.18;99461.30;104983;1271;65384;-23
2023/08/15 16:48:07;;;;;;;4.20;1.70;;;;;;;32.34;30.31;99461.89;105161;1267;63806;-23
2023/08/15 16:50:36;;;;;;;4.10;1.40;;;;;;;32.22;30.07;99463.19;104882;1269;61144;-23
2023/08/15 16:53:04;;;;;;;4.00;1.60;;;;;;;32.06;30.22;99466.15;104924;1268;61148;-23
2023/08/15 16:55:32;;;;;;;3.70;1.40;;;;;;;31.91;30.49;99465.05;105216;1266;64089;-22
2023/08/15 16:58:00;;;;;;;6.10;1.30;;;;;;;31.75;31.01;99466.27;104948;1279;64130;-23
2023/08/15 17:00:28;;;;;;;4.40;1.60;;;;;;;31.58;30.98;99462.36;105123;1277;63791;-23
2023/08/15 17:02:56;;;;;;;3.30;2.30;;;;;;;31.43;31.30;99464.36;104964;1263;61097;-23
2023/08/15 17:05:24;;;;;;;6.20;1.80;;;;;;;31.25;31.85;99461.70;104951;1270;61126;-23
2023/08/15 17:07:52;;;;;;;2.90;1.60;;;;;;;31.06;32.24;99460.23;104894;1269;64142;-22
2023/08/15 17:10:20;;;;;;;2.50;1.90;;;;;;;30.87;32.92;99463.33;105063;1270;64114;-22
2023/08/15 17:12:47;;;;;;;4.50;2.00;;;;;;;30.67;33.29;99461.88;104904;1269;62479;-22
2023/08/15 17:15:16;;;;;;;3.90;2.70;;;;;;;30.45;33.67;99463.98;105015;1264;61067;-22
2023/08/15 17:17:44;;;;;;;3.80;3.50;;;;;;;30.22;34.05;99460.32;105062;1264;61122;-22
2023/08/15 17:20:11;;;;;;;5.10;4.00;;;;;;;30.01;34.27;99464.54;105133;1268;73014;-22
2023/08/15 17:22:39;;;;;;;7.00;5.60;;;;;;;29.79;34.12;99464.00;105138;1269;73198;-22
2023/08/15 17:32:50;;;;;;;9.20;4.10;;;;;;;28.89;36.64;99468.61;102643;1295;600215;-22
2023/08/15 17:35:18;;;;;;;5.20;3.40;;;;;;;28.64;37.27;99472.30;104889;1266;61207;-22
2023/08/15 17:37:46;;;;;;;9.80;3.90;;;;;;;28.44;37.57;99471.90;104841;1270;61203;-22
2023/08/15 17:40:15;;;;;;;8.80;3.30;;;;;;;28.26;37.96;99474.71;104799;1272;72189;-22
2023/08/15 17:42:43;;;;;;;5.10;3.40;;;;;;;28.09;38.20;99474.98;104819;1270;74481;-22
2023/08/15 17:45:11;;;;;;;8.30;3.80;;;;;;;27.91;38.90;99477.04;104796;1269;72625;-22
2023/08/15 17:47:39;;;;;;;7.40;3.10;;;;;;;27.71;39.73;99481.80;103097;1264;2814606;-22
2023/08/15 17:50:08;;;;;;;5.30;3.20;;;;;;;27.50;40.09;99483.43;105133;1263;61196;-22
2023/08/15 17:52:35;;;;;;;6.30;3.10;;;;;;;27.32;40.43;99483.50;105151;1267;72327;-22
2023/08/15 18:02:45;;;;;;;3.70;3.30;;;;;;;26.51;41.17;99486.90;102607;1292;599471;-22
2023/08/15 18:05:14;;;;;;;5.80;3.30;;;;;;;26.35;41.89;99490.70;104791;1272;61218;-22
2023/08/15 18:07:42;;;;;;;14.90;4.70;;;;;;;26.19;43.11;99496.03;104906;1269;61228;-22
2023/08/15 18:10:10;;;;;;;12.40;5.10;;;;;;;26.02;44.08;99500.55;104720;1266;71034;-22
2023/08/15 18:12:37;;;;;;;9.20;3.90;;;;;;;25.84;43.75;99502.81;105216;1265;74310;-22
2023/08/15 18:15:06;;;;;;;16.70;5.10;;;;;;;25.71;43.96;99506.00;105365;1260;71718;-22
2023/08/15 18:17:34;;;;;;;11.20;4.30;;;;;;;25.58;44.83;99506.11;103395;1257;2823813;-22
2023/08/15 18:20:01;;;;;;;9.60;4.70;;;;;;;25.38;45.54;99507.69;105489;1262;62637;-23
2023/08/15 18:22:29;;;;;;;7.70;4.60;;;;;;;25.18;46.17;99515.05;105387;1260;70980;-23
2023/08/15 18:24:57;;;;;;;17.00;7.20;;;;;;;24.97;47.05;99516.05;105448;1263;73372;-23
2023/08/15 18:35:08;;;;;;;18.30;6.10;;;;;;;24.43;50.48;99524.02;102613;1293;600079;-22
2023/08/15 18:37:36;;;;;;;14.40;6.30;;;;;;;24.21;50.68;99523.69;108689;1266;58859;-23
2023/08/15 18:40:04;;;;;;;15.90;6.30;;;;;;;24.04;50.66;99524.60;108612;1266;60086;-23
2023/08/15 18:42:32;;;;;;;29.90;13.60;;;;;;;23.91;52.23;99523.67;108507;1266;72251;-23
2023/08/15 18:45:00;;;;;;;22.80;8.30;;;;;;;23.78;52.87;99524.39;108624;1266;74499;-23
2023/08/15 18:47:27;;;;;;;17.90;8.50;;;;;;;23.69;53.20;99527.31;108541;1266;72705;-23
2023/08/15 18:49:55;;;;;;;17.50;7.10;;;;;;;23.62;52.79;99524.66;106681;1263;2691445;-23
2023/08/15 18:52:26;;;;;;;21.50;6.70;;;;;;;23.57;52.68;99525.02;108728;1263;60049;-23
2023/08/15 18:54:53;;;;;;;45.30;19.20;;;;;;;23.50;53.18;99525.93;108750;1263;72067;-23
2023/08/15 18:57:23;;;;;;;25.40;11.90;;;;;;;23.42;54.17;99527.20;108733;1263;74412;-23
2023/08/15 18:59:52;;;;;;;28.20;12.10;;;;;;;23.28;54.74;99526.20;108750;1263;72675;-23
2023/08/15 19:02:20;;;;;;;28.60;14.20;;;;;;;23.16;54.60;99529.98;108672;1263;58831;-23
2023/08/15 19:04:49;;;;;;;33.50;14.80;;;;;;;23.08;55.01;99529.61;108685;1263;58839;-23
2023/08/15 19:07:18;;;;;;;26.20;9.30;;;;;;;23.01;54.96;99537.45;108736;1263;73126;-23
2023/08/15 19:09:46;;;;;;;19.80;9.80;;;;;;;22.90;56.47;99535.55;108762;1263;74598;-23
2023/08/15 19:12:15;;;;;;;21.40;11.90;;;;;;;22.81;55.90;99540.02;108712;1266;71386;-23
2023/08/15 19:14:43;;;;;;;17.40;9.50;;;;;;;22.72;56.29;99538.86;109301;1253;60111;-23
2023/08/15 19:17:11;;;;;;;26.40;10.80;;;;;;;22.61;56.98;99537.22;109322;1254;58856;-23
2023/08/15 19:19:41;;;;;;;26.60;12.90;;;;;;;22.46;57.60;99537.30;109359;1254;71865;-23
2023/08/15 19:22:12;;;;;;;22.40;10.40;;;;;;;22.31;57.99;99538.16;109362;1252;74330;-23
2023/08/15 19:24:42;;;;;;;39.30;18.60;;;;;;;22.18;59.37;99540.81;109451;1254;71138;-23
2023/08/15 19:27:14;;;;;;;39.00;18.90;;;;;;;22.08;59.45;99544.52;109337;1252;60099;-23
2023/08/15 19:29:42;;;;;;;110.70;54.30;;;;;;;22.01;59.80;99543.96;109335;1254;60165;-23
2023/08/15 19:32:09;;;;;;;41.80;22.60;;;;;;;21.93;60.54;99543.58;109339;1254;73027;-23
2023/08/15 19:34:44;;;;;;;193.40;96.20;;;;;;;21.83;60.99;99547.02;109447;1253;74293;-23
2023/08/15 19:37:15;;;;;;;78.70;38.00;;;;;;;21.74;61.77;99551.12;109126;1254;71477;-23
2023/08/15 19:39:57;;;;;;;66.50;33.70;;;;;;;21.68;62.85;99548.80;109438;1254;59071;-23
2023/08/15 19:42:26;;;;;;;46.70;24.60;;;;;;;21.62;63.69;99547.78;109453;1254;60029;-23
2023/08/15 19:44:55;;;;;;;75.40;36.00;;;;;;;21.57;62.89;99544.12;109248;1254;71793;-24
2023/08/15 19:47:22;;;;;;;47.60;24.50;;;;;;;21.51;63.14;99547.10;109486;1253;73552;-23
2023/08/15 19:49:50;;;;;;;50.80;22.20;;;;;;;21.45;64.13;99544.33;109272;1256;72679;-23
2023/08/15 19:52:17;;;;;;;48.00;22.30;;;;;;;21.37;65.57;99546.15;109401;1254;60138;-23
2023/08/15 19:54:45;;;;;;;52.00;25.10;;;;;;;21.33;64.87;99548.02;109472;1254;58779;-23
2023/08/15 19:57:12;;;;;;;45.30;23.60;;;;;;;21.28;65.02;99544.79;109603;1254;73066;-23
2023/08/15 19:59:41;;;;;;;49.80;25.40;;;;;;;21.21;64.68;99543.69;109454;1253;74325;-23
2023/08/15 20:02:09;;;;;;;63.80;31.60;;;;;;;21.15;64.95;99543.91;109444;1254;72714;-23
2023/08/15 20:04:38;;;;;;;55.30;26.80;;;;;;;21.12;65.37;99543.29;109416;1258;60036;-23
2023/08/15 20:07:05;;;;;;;44.20;23.10;;;;;;;21.05;65.60;99549.14;109498;1253;59227;-23
2023/08/15 20:09:33;;;;;;;44.70;20.90;;;;;;;20.95;66.03;99545.73;109289;1254;71787;-23
2023/08/15 20:12:01;;;;;;;37.90;21.40;;;;;;;20.84;65.86;99549.67;109396;1254;74732;-23
2023/08/15 20:14:29;;;;;;;40.50;19.70;;;;;;;20.71;66.36;99553.51;109129;1254;72658;-23
2023/08/15 20:16:56;;;;;;;49.90;24.50;;;;;;;20.58;67.04;99558.67;109388;1254;60225;-23
2023/08/15 20:19:24;;;;;;;45.00;20.60;;;;;;;20.53;67.40;99554.98;109438;1254;60112;-23
2023/08/15 20:21:51;;;;;;;38.70;20.10;;;;;;;21.06;67.10;99553.65;109350;1254;73008;-23
2023/08/15 20:24:19;;;;;;;40.10;21.10;;;;;;;21.72;65.53;99553.86;109339;1254;72170;-23
2023/08/15 20:26:47;;;;;;;48.50;23.70;;;;;;;21.92;64.12;99551.24;109380;1257;72673;-23
2023/08/15 20:29:14;;;;;;;35.60;19.40;;;;;;;21.90;63.91;99549.41;109372;1254;59563;-23
2023/08/15 20:31:42;;;;;;;56.70;26.20;;;;;;;21.75;63.96;99553.08;109446;1254;58775;-23
2023/08/15 20:34:09;;;;;;;34.40;18.20;;;;;;;21.56;64.54;99551.70;109283;1254;70855;-23
2023/08/15 20:36:37;;;;;;;41.60;19.70;;;;;;;21.34;64.78;99550.87;109284;1254;73107;-23
2023/08/15 20:39:04;;;;;;;28.20;16.20;;;;;;;21.17;65.25;99554.88;109393;1254;72706;-24
2023/08/15 20:41:32;;;;;;;25.30;13.10;;;;;;;21.02;65.23;99559.39;109313;1258;60181;-23
2023/08/15 20:43:59;;;;;;;31.10;16.30;;;;;;;20.90;65.63;99555.91;109459;1253;60242;-23
2023/08/15 20:46:37;;;;;;;37.90;18.90;;;;;;;20.81;66.21;99557.08;109270;1260;71782;-22
2023/08/15 20:49:05;;;;;;;44.40;19.00;;;;;;;20.74;66.53;99559.49;109243;1254;73648;-23
2023/08/15 20:51:33;;;;;;;39.60;17.70;;;;;;;20.67;66.43;99562.90;109284;1254;70573;-23
2023/08/15 20:54:00;;;;;;;40.30;20.40;;;;;;;20.62;67.08;99562.97;109367;1255;59764;-23
2023/08/15 20:56:28;;;;;;;45.10;21.80;;;;;;;20.56;67.58;99561.34;109467;1254;59112;-23
2023/08/15 20:58:55;;;;;;;27.20;13.40;;;;;;;20.53;67.92;99557.45;109403;1254;73004;-23
2023/08/15 21:01:23;;;;;;;29.90;14.10;;;;;;;21.04;67.69;99557.38;109367;1254;74321;-23
2023/08/15 21:03:51;;;;;;;22.80;12.90;;;;;;;21.60;66.21;99556.52;109358;1254;71814;-23
2023/08/15 21:06:19;;;;;;;30.40;14.90;;;;;;;21.69;64.69;99554.84;109430;1254;60110;-23
2023/08/15 21:08:46;;;;;;;26.90;12.60;;;;;;;21.55;64.18;99554.20;109424;1259;58831;-23
2023/08/15 21:11:14;;;;;;;24.50;12.10;;;;;;;21.35;64.28;99553.05;109390;1254;71918;-23
2023/08/15 21:13:42;;;;;;;29.90;14.80;;;;;;;21.14;64.77;99549.21;109209;1254;73319;-23
2023/08/15 21:16:09;;;;;;;30.90;14.90;;;;;;;20.94;65.38;99553.08;109334;1254;72651;-23
2023/08/15 21:18:37;;;;;;;27.80;15.30;;;;;;;20.77;65.84;99553.46;109328;1254;60072;-22
2023/08/15 21:21:06;;;;;;;34.90;19.70;;;;;;;20.58;65.97;99549.10;109372;1255;58768;-23
2023/08/15 21:23:34;;;;;;;64.00;33.00;;;;;;;20.45;66.78;99549.09;109226;1260;72977;-23
2023/08/15 21:26:02;;;;;;;36.00;19.80;;;;;;;20.34;67.51;99547.98;109359;1254;73027;-23
2023/08/15 21:28:29;;;;;;;34.00;17.90;;;;;;;20.22;68.13;99551.30;109357;1254;70717;-23
2023/08/15 21:30:57;;;;;;;41.00;19.60;;;;;;;20.08;68.26;99547.95;109227;1254;60049;-23
2023/08/15 21:33:24;;;;;;;34.30;13.90;;;;;;;19.93;70.12;99548.70;109215;1254;58716;-23
2023/08/15 21:35:52;;;;;;;51.20;21.40;;;;;;;20.33;70.09;99545.92;109350;1254;71810;-23
2023/08/15 21:38:20;;;;;;;27.80;13.90;;;;;;;20.80;69.12;99540.09;109255;1254;74328;-23
2023/08/15 21:40:48;;;;;;;41.30;18.50;;;;;;;20.86;68.12;99541.48;109358;1254;71478;-23
2023/08/15 21:43:16;;;;;;;35.60;18.90;;;;;;;20.76;68.26;99540.00;109193;1254;59011;-23
2023/08/15 21:45:44;;;;;;;56.60;27.80;;;;;;;20.60;67.92;99541.52;109323;1259;58709;-23
2023/08/15 21:48:12;;;;;;;39.20;19.90;;;;;;;20.48;68.26;99541.86;109178;1254;73079;-23
2023/08/15 21:50:39;;;;;;;33.50;15.90;;;;;;;20.27;69.57;99538.71;109367;1254;74306;-23
2023/08/15 21:53:07;;;;;;;26.90;13.50;;;;;;;20.06;69.53;99536.77;109327;1255;72655;-23
2023/08/15 21:55:34;;;;;;;24.00;13.60;;;;;;;19.92;69.50;99538.42;109326;1256;58856;-23
2023/08/15 21:58:02;;;;;;;22.90;11.50;;;;;;;19.80;69.96;99537.13;109374;1254;58793;-23
2023/08/15 22:00:29;;;;;;;26.00;12.70;;;;;;;19.68;69.62;99533.74;109338;1256;73057;-23
2023/08/15 22:02:57;;;;;;;22.70;10.50;;;;;;;19.54;69.72;99533.88;109242;1254;73351;-23
2023/08/15 22:05:25;;;;;;;17.30;9.50;;;;;;;19.88;70.00;99530.28;109408;1254;71458;-23
2023/08/15 22:07:53;;;;;;;17.10;9.90;;;;;;;20.36;69.21;99536.89;109311;1254;58953;-23
2023/08/15 22:10:21;;;;;;;24.10;13.40;;;;;;;20.39;69.45;99533.37;109395;1254;59268;-23
2023/08/15 22:12:49;;;;;;;27.90;14.70;;;;;;;20.23;70.80;99535.21;109123;1257;73056;-23
2023/08/15 22:15:17;;;;;;;24.30;13.70;;;;;;;20.08;70.70;99533.65;109255;1256;73045;-23
2023/08/15 22:17:48;;;;;;;27.30;14.10;;;;;;;19.99;70.89;99536.12;109135;1256;72656;-23
2023/08/15 22:20:30;;;;;;;20.40;11.20;;;;;;;19.85;69.93;99533.40;109088;1257;60044;-23
2023/08/15 22:22:58;;;;;;;19.90;11.90;;;;;;;19.73;70.08;99529.50;109123;1255;59982;-23
2023/08/15 22:25:25;;;;;;;22.30;12.10;;;;;;;19.62;70.16;99532.22;109147;1256;73007;-23
2023/08/15 22:27:53;;;;;;;16.60;9.30;;;;;;;19.54;70.95;99532.62;109276;1257;74277;-23
2023/08/15 22:30:20;;;;;;;21.40;10.60;;;;;;;19.98;71.03;99532.45;109251;1256;71782;-23
2023/08/15 22:32:48;;;;;;;16.60;8.90;;;;;;;20.50;69.35;99534.50;109088;1256;58835;-23
2023/08/15 22:35:16;;;;;;;15.90;9.40;;;;;;;20.60;68.25;99536.36;109050;1256;60037;-23
2023/08/15 22:37:44;;;;;;;18.40;9.70;;;;;;;20.51;68.17;99533.83;109218;1257;73056;-23
2023/08/15 22:40:12;;;;;;;23.50;10.90;;;;;;;20.35;68.39;99536.36;109308;1257;73320;-23
2023/08/15 22:42:39;;;;;;;17.00;10.00;;;;;;;20.14;68.72;99530.15;109155;1257;72679;-23
2023/08/15 22:45:07;;;;;;;14.40;9.70;;;;;;;19.98;69.09;99537.77;109086;1255;59044;-23
2023/08/15 22:47:35;;;;;;;14.00;8.80;;;;;;;19.81;69.53;99535.64;109247;1256;58654;-22
2023/08/15 22:50:03;;;;;;;19.50;8.80;;;;;;;19.62;70.31;99535.42;109246;1256;73847;-23
2023/08/15 22:52:30;;;;;;;14.10;7.80;;;;;;;19.41;70.58;99536.14;109140;1256;73192;-23
2023/08/15 22:54:58;;;;;;;11.90;7.00;;;;;;;19.15;71.44;99536.59;109084;1257;71453;-22
2023/08/15 22:57:25;;;;;;;13.90;6.80;;;;;;;18.94;72.25;99535.09;109067;1260;61686;-23
2023/08/15 22:59:53;;;;;;;12.50;5.90;;;;;;;19.39;72.62;99534.63;109292;1256;58727;-23
2023/08/15 23:02:21;;;;;;;24.50;12.00;;;;;;;19.86;70.01;99533.98;109118;1257;72875;-23
2023/08/15 23:04:51;;;;;;;22.40;13.60;;;;;;;19.82;71.16;99531.97;109205;1257;74304;-23
2023/08/15 23:07:19;;;;;;;20.50;12.00;;;;;;;19.56;72.67;99536.80;109218;1256;72651;-23
2023/08/15 23:09:47;;;;;;;23.90;12.40;;;;;;;19.27;72.46;99539.66;109124;1257;58903;-23
2023/08/15 23:12:15;;;;;;;17.90;10.80;;;;;;;19.06;73.88;99543.54;109194;1256;60029;-23
2023/08/15 23:14:42;;;;;;;25.90;14.10;;;;;;;18.86;75.99;99550.60;109124;1257;73848;-23
2023/08/15 23:17:10;;;;;;;29.80;12.90;;;;;;;18.66;76.35;99550.55;109140;1256;74310;-23
2023/08/15 23:19:37;;;;;;;12.00;8.00;;;;;;;18.57;75.11;99549.45;109130;1258;72720;-23
2023/08/15 23:22:05;;;;;;;22.50;10.30;;;;;;;19.06;74.01;99550.88;109092;1256;58854;-23
2023/08/15 23:24:32;;;;;;;27.60;11.40;;;;;;;19.62;72.50;99552.30;109138;1257;59993;-23
2023/08/15 23:27:01;;;;;;;26.10;12.00;;;;;;;19.72;71.12;99549.12;109150;1257;73870;-23
2023/08/15 23:29:28;;;;;;;22.90;12.20;;;;;;;19.54;71.80;99548.80;109175;1257;73080;-23
2023/08/15 23:31:58;;;;;;;27.30;12.70;;;;;;;19.35;72.02;99550.23;109076;1256;70564;-23
2023/08/15 23:34:26;;;;;;;25.30;11.80;;;;;;;19.08;73.94;99551.88;109088;1256;59316;-23
2023/08/15 23:36:53;;;;;;;23.20;11.00;;;;;;;18.87;74.97;99553.40;109138;1257;58858;-23
2023/08/15 23:39:21;;;;;;;21.90;11.90;;;;;;;18.73;74.84;99556.64;109140;1257;73902;-23
2023/08/15 23:41:49;;;;;;;20.70;11.20;;;;;;;18.64;73.96;99556.45;109110;1256;74372;-23
2023/08/15 23:44:18;;;;;;;15.10;7.70;;;;;;;18.53;74.14;99556.19;109083;1257;72653;-22
2023/08/15 23:46:47;;;;;;;14.40;7.90;;;;;;;19.03;73.60;99554.42;109110;1256;59185;-23
2023/08/15 23:49:15;;;;;;;16.80;9.00;;;;;;;19.56;71.92;99554.73;109143;1256;58906;-23
2023/08/15 23:51:42;;;;;;;18.40;9.20;;;;;;;19.62;70.82;99549.50;109103;1257;73900;-23
2023/08/15 23:54:10;;;;;;;13.00;9.20;;;;;;;19.50;70.94;99550.70;109123;1257;74510;-23
2023/08/15 23:56:38;;;;;;;16.80;9.70;;;;;;;19.34;71.28;99551.38;109096;1256;72670;-23
2023/08/15 23:59:05;;;;;;;15.80;8.80;;;;;;;19.17;71.68;99550.61;109110;1257;58879;-24
